sensor_id;sensor_type;location;lat;lon;timestamp;P1;durP1;ratioP1;P2;durP2;ratioP2
24008;SDS011;12217;50.792;4.372;2023-07-30T00:01:30;12.18;;;4.10;;
24008;SDS011;12217;50.792;4.372;2023-07-30T00:03:55;9.95;;;3.95;;
24008;SDS011;12217;50.792;4.372;2023-07-30T00:06:21;14.40;;;3.95;;
24008;SDS011;12217;50.792;4.372;2023-07-30T00:08:46;9.55;;;3.80;;
24008;SDS011;12217;50.792;4.372;2023-07-30T00:11:12;10.48;;;3.58;;
24008;SDS011;12217;50.792;4.372;2023-07-30T00:13:37;13.45;;;3.95;;
24008;SDS011;12217;50.792;4.372;2023-07-30T00:16:03;10.63;;;3.55;;
24008;SDS011;12217;50.792;4.372;2023-07-30T00:18:29;15.50;;;3.83;;
24008;SDS011;12217;50.792;4.372;2023-07-30T00:20:54;10.82;;;3.10;;
24008;SDS011;12217;50.792;4.372;2023-07-30T00:23:20;11.68;;;3.40;;
24008;SDS011;12217;50.792;4.372;2023-07-30T00:25:45;8.25;;;3.00;;
24008;SDS011;12217;50.792;4.372;2023-07-30T00:28:11;14.20;;;3.88;;
24008;SDS011;12217;50.792;4.372;2023-07-30T00:30:36;10.80;;;3.33;;
24008;SDS011;12217;50.792;4.372;2023-07-30T00:33:02;9.35;;;3.10;;
24008;SDS011;12217;50.792;4.372;2023-07-30T00:35:28;11.98;;;3.97;;
24008;SDS011;12217;50.792;4.372;2023-07-30T00:37:54;12.43;;;3.33;;
24008;SDS011;12217;50.792;4.372;2023-07-30T00:40:20;12.30;;;3.58;;
24008;SDS011;12217;50.792;4.372;2023-07-30T00:42:45;13.38;;;3.72;;
24008;SDS011;12217;50.792;4.372;2023-07-30T00:45:11;14.73;;;3.58;;
24008;SDS011;12217;50.792;4.372;2023-07-30T00:47:37;11.15;;;3.58;;
24008;SDS011;12217;50.792;4.372;2023-07-30T00:50:03;11.30;;;3.60;;
24008;SDS011;12217;50.792;4.372;2023-07-30T00:52:30;12.73;;;3.63;;
24008;SDS011;12217;50.792;4.372;2023-07-30T00:54:57;10.65;;;3.10;;
24008;SDS011;12217;50.792;4.372;2023-07-30T00:57:23;9.85;;;3.60;;
24008;SDS011;12217;50.792;4.372;2023-07-30T00:59:50;9.30;;;3.13;;
24008;SDS011;12217;50.792;4.372;2023-07-30T01:02:16;12.93;;;3.60;;
24008;SDS011;12217;50.792;4.372;2023-07-30T01:04:42;10.85;;;3.80;;
24008;SDS011;12217;50.792;4.372;2023-07-30T01:07:09;11.85;;;3.75;;
24008;SDS011;12217;50.792;4.372;2023-07-30T01:09:34;11.60;;;3.75;;
24008;SDS011;12217;50.792;4.372;2023-07-30T01:12:00;13.05;;;4.13;;
24008;SDS011;12217;50.792;4.372;2023-07-30T01:14:28;15.48;;;4.43;;
24008;SDS011;12217;50.792;4.372;2023-07-30T01:16:54;8.27;;;3.67;;
24008;SDS011;12217;50.792;4.372;2023-07-30T01:19:19;11.35;;;3.92;;
24008;SDS011;12217;50.792;4.372;2023-07-30T01:21:45;16.13;;;4.03;;
24008;SDS011;12217;50.792;4.372;2023-07-30T01:24:10;13.45;;;3.80;;
24008;SDS011;12217;50.792;4.372;2023-07-30T01:26:43;10.57;;;3.55;;
24008;SDS011;12217;50.792;4.372;2023-07-30T01:29:15;12.75;;;4.05;;
24008;SDS011;12217;50.792;4.372;2023-07-30T01:31:46;17.00;;;4.32;;
24008;SDS011;12217;50.792;4.372;2023-07-30T01:34:26;14.13;;;4.78;;
24008;SDS011;12217;50.792;4.372;2023-07-30T01:36:53;12.10;;;3.97;;
24008;SDS011;12217;50.792;4.372;2023-07-30T01:39:20;13.90;;;3.70;;
24008;SDS011;12217;50.792;4.372;2023-07-30T01:41:47;9.65;;;3.42;;
24008;SDS011;12217;50.792;4.372;2023-07-30T01:44:12;10.73;;;3.50;;
24008;SDS011;12217;50.792;4.372;2023-07-30T01:46:38;12.57;;;3.20;;
24008;SDS011;12217;50.792;4.372;2023-07-30T01:49:03;13.63;;;3.20;;
24008;SDS011;12217;50.792;4.372;2023-07-30T01:51:29;11.55;;;3.53;;
24008;SDS011;12217;50.792;4.372;2023-07-30T01:53:54;14.93;;;3.88;;
24008;SDS011;12217;50.792;4.372;2023-07-30T01:56:20;11.73;;;3.80;;
24008;SDS011;12217;50.792;4.372;2023-07-30T01:58:45;11.35;;;3.65;;
24008;SDS011;12217;50.792;4.372;2023-07-30T02:01:11;14.55;;;3.58;;
24008;SDS011;12217;50.792;4.372;2023-07-30T02:03:37;11.35;;;3.95;;
24008;SDS011;12217;50.792;4.372;2023-07-30T02:06:02;14.15;;;3.70;;
24008;SDS011;12217;50.792;4.372;2023-07-30T02:08:28;11.55;;;3.28;;
24008;SDS011;12217;50.792;4.372;2023-07-30T02:10:54;14.57;;;3.40;;
24008;SDS011;12217;50.792;4.372;2023-07-30T02:13:21;14.95;;;4.13;;
24008;SDS011;12217;50.792;4.372;2023-07-30T02:15:46;14.95;;;3.80;;
24008;SDS011;12217;50.792;4.372;2023-07-30T02:18:12;14.95;;;3.88;;
24008;SDS011;12217;50.792;4.372;2023-07-30T02:20:37;12.82;;;3.78;;
24008;SDS011;12217;50.792;4.372;2023-07-30T02:23:03;11.00;;;3.22;;
24008;SDS011;12217;50.792;4.372;2023-07-30T02:25:28;15.90;;;3.50;;
24008;SDS011;12217;50.792;4.372;2023-07-30T02:27:54;14.15;;;3.50;;
24008;SDS011;12217;50.792;4.372;2023-07-30T02:30:20;12.82;;;3.70;;
24008;SDS011;12217;50.792;4.372;2023-07-30T02:32:45;12.32;;;3.10;;
24008;SDS011;12217;50.792;4.372;2023-07-30T02:35:11;16.77;;;3.65;;
24008;SDS011;12217;50.792;4.372;2023-07-30T02:37:36;12.10;;;2.95;;
24008;SDS011;12217;50.792;4.372;2023-07-30T02:40:02;13.98;;;3.13;;
24008;SDS011;12217;50.792;4.372;2023-07-30T02:42:29;14.75;;;3.70;;
24008;SDS011;12217;50.792;4.372;2023-07-30T02:44:56;10.57;;;2.97;;
24008;SDS011;12217;50.792;4.372;2023-07-30T02:47:21;16.25;;;2.92;;
24008;SDS011;12217;50.792;4.372;2023-07-30T02:49:47;14.77;;;3.15;;
24008;SDS011;12217;50.792;4.372;2023-07-30T02:52:12;14.48;;;3.47;;
24008;SDS011;12217;50.792;4.372;2023-07-30T02:54:38;18.02;;;3.22;;
24008;SDS011;12217;50.792;4.372;2023-07-30T02:57:04;11.70;;;3.25;;
24008;SDS011;12217;50.792;4.372;2023-07-30T02:59:29;10.70;;;2.80;;
24008;SDS011;12217;50.792;4.372;2023-07-30T03:01:55;14.63;;;2.97;;
24008;SDS011;12217;50.792;4.372;2023-07-30T03:04:20;8.48;;;2.60;;
24008;SDS011;12217;50.792;4.372;2023-07-30T03:06:46;15.52;;;3.35;;
24008;SDS011;12217;50.792;4.372;2023-07-30T03:09:12;18.05;;;3.47;;
24008;SDS011;12217;50.792;4.372;2023-07-30T03:11:37;13.52;;;3.05;;
24008;SDS011;12217;50.792;4.372;2023-07-30T03:14:03;15.45;;;2.97;;
24008;SDS011;12217;50.792;4.372;2023-07-30T03:16:28;14.10;;;3.03;;
24008;SDS011;12217;50.792;4.372;2023-07-30T03:18:54;13.88;;;3.00;;
24008;SDS011;12217;50.792;4.372;2023-07-30T03:21:19;11.32;;;2.88;;
24008;SDS011;12217;50.792;4.372;2023-07-30T03:23:45;16.50;;;3.83;;
24008;SDS011;12217;50.792;4.372;2023-07-30T03:26:13;15.52;;;3.17;;
24008;SDS011;12217;50.792;4.372;2023-07-30T03:28:38;14.05;;;3.40;;
24008;SDS011;12217;50.792;4.372;2023-07-30T03:31:04;14.20;;;2.80;;
24008;SDS011;12217;50.792;4.372;2023-07-30T03:33:30;15.80;;;2.90;;
24008;SDS011;12217;50.792;4.372;2023-07-30T03:35:56;11.20;;;2.90;;
24008;SDS011;12217;50.792;4.372;2023-07-30T03:38:22;18.25;;;3.30;;
24008;SDS011;12217;50.792;4.372;2023-07-30T03:40:47;14.88;;;3.30;;
24008;SDS011;12217;50.792;4.372;2023-07-30T03:43:13;14.38;;;3.17;;
24008;SDS011;12217;50.792;4.372;2023-07-30T03:45:38;14.68;;;2.83;;
24008;SDS011;12217;50.792;4.372;2023-07-30T03:48:04;15.45;;;2.92;;
24008;SDS011;12217;50.792;4.372;2023-07-30T03:50:30;13.00;;;3.50;;
24008;SDS011;12217;50.792;4.372;2023-07-30T03:52:55;17.95;;;3.08;;
24008;SDS011;12217;50.792;4.372;2023-07-30T03:55:22;19.50;;;3.92;;
24008;SDS011;12217;50.792;4.372;2023-07-30T03:57:49;14.10;;;2.75;;
24008;SDS011;12217;50.792;4.372;2023-07-30T04:00:14;12.32;;;3.20;;
24008;SDS011;12217;50.792;4.372;2023-07-30T04:02:40;16.10;;;3.17;;
24008;SDS011;12217;50.792;4.372;2023-07-30T04:05:06;16.60;;;3.55;;
24008;SDS011;12217;50.792;4.372;2023-07-30T04:07:32;13.43;;;3.05;;
24008;SDS011;12217;50.792;4.372;2023-07-30T04:09:57;15.43;;;3.65;;
24008;SDS011;12217;50.792;4.372;2023-07-30T04:12:23;11.88;;;3.10;;
24008;SDS011;12217;50.792;4.372;2023-07-30T04:14:48;13.07;;;3.08;;
24008;SDS011;12217;50.792;4.372;2023-07-30T04:17:14;14.35;;;3.45;;
24008;SDS011;12217;50.792;4.372;2023-07-30T04:19:40;15.98;;;3.17;;
24008;SDS011;12217;50.792;4.372;2023-07-30T04:22:05;18.55;;;3.58;;
24008;SDS011;12217;50.792;4.372;2023-07-30T04:24:31;12.13;;;3.10;;
24008;SDS011;12217;50.792;4.372;2023-07-30T04:26:56;19.42;;;3.47;;
24008;SDS011;12217;50.792;4.372;2023-07-30T04:29:22;16.80;;;4.20;;
24008;SDS011;12217;50.792;4.372;2023-07-30T04:31:47;23.50;;;4.13;;
24008;SDS011;12217;50.792;4.372;2023-07-30T04:34:13;16.77;;;3.03;;
24008;SDS011;12217;50.792;4.372;2023-07-30T04:36:40;17.00;;;3.20;;
24008;SDS011;12217;50.792;4.372;2023-07-30T04:39:05;21.27;;;3.03;;
24008;SDS011;12217;50.792;4.372;2023-07-30T04:41:31;15.30;;;3.47;;
24008;SDS011;12217;50.792;4.372;2023-07-30T04:43:56;18.30;;;3.65;;
24008;SDS011;12217;50.792;4.372;2023-07-30T04:46:22;17.33;;;3.40;;
24008;SDS011;12217;50.792;4.372;2023-07-30T04:48:47;15.07;;;3.45;;
24008;SDS011;12217;50.792;4.372;2023-07-30T04:51:13;19.92;;;4.00;;
24008;SDS011;12217;50.792;4.372;2023-07-30T04:53:38;19.73;;;3.22;;
24008;SDS011;12217;50.792;4.372;2023-07-30T04:56:04;22.75;;;4.00;;
24008;SDS011;12217;50.792;4.372;2023-07-30T04:58:29;21.60;;;3.72;;
24008;SDS011;12217;50.792;4.372;2023-07-30T05:00:55;15.25;;;3.40;;
24008;SDS011;12217;50.792;4.372;2023-07-30T05:03:21;14.60;;;3.28;;
24008;SDS011;12217;50.792;4.372;2023-07-30T05:05:46;19.75;;;3.17;;
24008;SDS011;12217;50.792;4.372;2023-07-30T05:08:12;18.83;;;3.63;;
24008;SDS011;12217;50.792;4.372;2023-07-30T05:10:37;15.80;;;3.88;;
24008;SDS011;12217;50.792;4.372;2023-07-30T05:13:03;21.75;;;3.53;;
24008;SDS011;12217;50.792;4.372;2023-07-30T05:15:28;18.77;;;4.15;;
24008;SDS011;12217;50.792;4.372;2023-07-30T05:17:54;14.88;;;3.40;;
24008;SDS011;12217;50.792;4.372;2023-07-30T05:20:19;14.90;;;3.40;;
24008;SDS011;12217;50.792;4.372;2023-07-30T05:22:45;16.70;;;3.55;;
24008;SDS011;12217;50.792;4.372;2023-07-30T05:25:10;19.70;;;3.97;;
24008;SDS011;12217;50.792;4.372;2023-07-30T05:27:36;20.20;;;4.30;;
24008;SDS011;12217;50.792;4.372;2023-07-30T05:30:02;16.27;;;3.45;;
24008;SDS011;12217;50.792;4.372;2023-07-30T05:32:28;13.35;;;3.22;;
24008;SDS011;12217;50.792;4.372;2023-07-30T05:34:54;21.00;;;4.40;;
24008;SDS011;12217;50.792;4.372;2023-07-30T05:37:19;16.35;;;3.40;;
24008;SDS011;12217;50.792;4.372;2023-07-30T05:39:45;18.63;;;3.70;;
24008;SDS011;12217;50.792;4.372;2023-07-30T05:42:10;14.48;;;2.85;;
24008;SDS011;12217;50.792;4.372;2023-07-30T05:44:36;15.43;;;2.92;;
24008;SDS011;12217;50.792;4.372;2023-07-30T05:47:01;16.02;;;3.15;;
24008;SDS011;12217;50.792;4.372;2023-07-30T05:49:27;13.18;;;3.35;;
24008;SDS011;12217;50.792;4.372;2023-07-30T05:51:53;14.13;;;3.35;;
24008;SDS011;12217;50.792;4.372;2023-07-30T05:54:18;23.20;;;3.65;;
24008;SDS011;12217;50.792;4.372;2023-07-30T05:56:44;19.35;;;3.38;;
24008;SDS011;12217;50.792;4.372;2023-07-30T05:59:10;17.42;;;3.38;;
24008;SDS011;12217;50.792;4.372;2023-07-30T06:01:35;13.63;;;3.42;;
24008;SDS011;12217;50.792;4.372;2023-07-30T06:04:01;13.95;;;3.40;;
24008;SDS011;12217;50.792;4.372;2023-07-30T06:06:26;16.30;;;3.80;;
24008;SDS011;12217;50.792;4.372;2023-07-30T06:08:55;16.40;;;3.75;;
24008;SDS011;12217;50.792;4.372;2023-07-30T06:11:21;14.35;;;3.22;;
24008;SDS011;12217;50.792;4.372;2023-07-30T06:13:47;15.05;;;3.50;;
24008;SDS011;12217;50.792;4.372;2023-07-30T06:16:13;18.90;;;4.15;;
24008;SDS011;12217;50.792;4.372;2023-07-30T06:18:39;19.10;;;3.72;;
24008;SDS011;12217;50.792;4.372;2023-07-30T06:21:05;22.95;;;3.88;;
24008;SDS011;12217;50.792;4.372;2023-07-30T06:23:30;13.98;;;3.53;;
24008;SDS011;12217;50.792;4.372;2023-07-30T06:25:56;14.60;;;3.78;;
24008;SDS011;12217;50.792;4.372;2023-07-30T06:28:22;17.23;;;3.70;;
24008;SDS011;12217;50.792;4.372;2023-07-30T06:30:48;18.70;;;3.20;;
24008;SDS011;12217;50.792;4.372;2023-07-30T06:33:13;16.73;;;3.42;;
24008;SDS011;12217;50.792;4.372;2023-07-30T06:35:39;16.92;;;3.85;;
24008;SDS011;12217;50.792;4.372;2023-07-30T06:38:05;14.85;;;3.25;;
24008;SDS011;12217;50.792;4.372;2023-07-30T06:40:33;29.27;;;4.43;;
24008;SDS011;12217;50.792;4.372;2023-07-30T06:42:58;26.27;;;4.10;;
24008;SDS011;12217;50.792;4.372;2023-07-30T06:45:24;20.73;;;3.42;;
24008;SDS011;12217;50.792;4.372;2023-07-30T06:47:49;26.48;;;4.68;;
24008;SDS011;12217;50.792;4.372;2023-07-30T06:50:15;20.20;;;3.95;;
24008;SDS011;12217;50.792;4.372;2023-07-30T06:52:40;23.05;;;4.47;;
24008;SDS011;12217;50.792;4.372;2023-07-30T06:55:06;17.02;;;3.95;;
24008;SDS011;12217;50.792;4.372;2023-07-30T06:57:32;19.88;;;4.03;;
24008;SDS011;12217;50.792;4.372;2023-07-30T06:59:57;21.52;;;4.10;;
24008;SDS011;12217;50.792;4.372;2023-07-30T07:02:23;21.95;;;3.92;;
24008;SDS011;12217;50.792;4.372;2023-07-30T07:04:49;16.60;;;3.95;;
24008;SDS011;12217;50.792;4.372;2023-07-30T07:07:15;14.65;;;3.50;;
24008;SDS011;12217;50.792;4.372;2023-07-30T07:09:41;16.35;;;3.10;;
24008;SDS011;12217;50.792;4.372;2023-07-30T07:12:06;16.75;;;3.47;;
24008;SDS011;12217;50.792;4.372;2023-07-30T07:14:32;17.27;;;3.55;;
24008;SDS011;12217;50.792;4.372;2023-07-30T07:16:58;13.10;;;3.53;;
24008;SDS011;12217;50.792;4.372;2023-07-30T07:19:23;18.55;;;3.60;;
24008;SDS011;12217;50.792;4.372;2023-07-30T07:21:49;12.48;;;3.38;;
24008;SDS011;12217;50.792;4.372;2023-07-30T07:24:15;19.05;;;3.97;;
24008;SDS011;12217;50.792;4.372;2023-07-30T07:26:41;13.43;;;3.33;;
24008;SDS011;12217;50.792;4.372;2023-07-30T07:29:06;18.08;;;3.10;;
24008;SDS011;12217;50.792;4.372;2023-07-30T07:31:32;14.52;;;3.10;;
24008;SDS011;12217;50.792;4.372;2023-07-30T07:33:57;17.75;;;3.60;;
24008;SDS011;12217;50.792;4.372;2023-07-30T07:36:23;16.48;;;3.15;;
24008;SDS011;12217;50.792;4.372;2023-07-30T07:38:49;18.35;;;3.20;;
24008;SDS011;12217;50.792;4.372;2023-07-30T07:41:15;13.07;;;3.47;;
24008;SDS011;12217;50.792;4.372;2023-07-30T07:43:41;14.60;;;3.33;;
24008;SDS011;12217;50.792;4.372;2023-07-30T07:46:07;15.15;;;3.25;;
24008;SDS011;12217;50.792;4.372;2023-07-30T07:48:38;15.32;;;3.25;;
24008;SDS011;12217;50.792;4.372;2023-07-30T07:51:05;15.13;;;3.53;;
24008;SDS011;12217;50.792;4.372;2023-07-30T07:53:31;11.52;;;3.17;;
24008;SDS011;12217;50.792;4.372;2023-07-30T07:55:56;11.52;;;3.05;;
24008;SDS011;12217;50.792;4.372;2023-07-30T07:58:22;14.52;;;3.58;;
24008;SDS011;12217;50.792;4.372;2023-07-30T08:00:47;14.30;;;3.35;;
24008;SDS011;12217;50.792;4.372;2023-07-30T08:03:13;18.77;;;3.05;;
24008;SDS011;12217;50.792;4.372;2023-07-30T08:05:38;14.63;;;3.10;;
24008;SDS011;12217;50.792;4.372;2023-07-30T08:08:04;14.07;;;3.22;;
24008;SDS011;12217;50.792;4.372;2023-07-30T08:10:29;14.55;;;3.35;;
24008;SDS011;12217;50.792;4.372;2023-07-30T08:12:55;14.55;;;3.40;;
24008;SDS011;12217;50.792;4.372;2023-07-30T08:15:21;13.27;;;3.15;;
24008;SDS011;12217;50.792;4.372;2023-07-30T08:17:46;14.18;;;2.50;;
24008;SDS011;12217;50.792;4.372;2023-07-30T08:20:12;13.57;;;2.95;;
24008;SDS011;12217;50.792;4.372;2023-07-30T08:22:37;13.93;;;2.95;;
24008;SDS011;12217;50.792;4.372;2023-07-30T08:25:03;13.63;;;2.70;;
24008;SDS011;12217;50.792;4.372;2023-07-30T08:27:29;18.85;;;3.25;;
24008;SDS011;12217;50.792;4.372;2023-07-30T08:29:55;15.63;;;3.58;;
24008;SDS011;12217;50.792;4.372;2023-07-30T08:32:21;15.38;;;2.80;;
24008;SDS011;12217;50.792;4.372;2023-07-30T08:34:46;12.95;;;3.08;;
24008;SDS011;12217;50.792;4.372;2023-07-30T08:37:12;13.57;;;3.80;;
24008;SDS011;12217;50.792;4.372;2023-07-30T08:39:37;15.57;;;2.70;;
24008;SDS011;12217;50.792;4.372;2023-07-30T08:42:03;12.77;;;3.25;;
24008;SDS011;12217;50.792;4.372;2023-07-30T08:44:29;12.57;;;2.80;;
24008;SDS011;12217;50.792;4.372;2023-07-30T08:46:54;13.20;;;2.88;;
24008;SDS011;12217;50.792;4.372;2023-07-30T08:49:20;10.98;;;2.53;;
24008;SDS011;12217;50.792;4.372;2023-07-30T08:51:46;11.38;;;2.40;;
24008;SDS011;12217;50.792;4.372;2023-07-30T08:54:17;11.97;;;2.70;;
24008;SDS011;12217;50.792;4.372;2023-07-30T08:56:45;13.07;;;2.80;;
24008;SDS011;12217;50.792;4.372;2023-07-30T08:59:11;15.20;;;2.45;;
24008;SDS011;12217;50.792;4.372;2023-07-30T09:01:38;11.85;;;3.00;;
24008;SDS011;12217;50.792;4.372;2023-07-30T09:04:06;12.90;;;2.67;;
24008;SDS011;12217;50.792;4.372;2023-07-30T09:06:32;14.48;;;2.90;;
24008;SDS011;12217;50.792;4.372;2023-07-30T09:08:58;12.43;;;2.75;;
24008;SDS011;12217;50.792;4.372;2023-07-30T09:11:26;13.40;;;2.88;;
24008;SDS011;12217;50.792;4.372;2023-07-30T09:13:53;15.13;;;3.67;;
24008;SDS011;12217;50.792;4.372;2023-07-30T09:16:23;13.13;;;3.08;;
24008;SDS011;12217;50.792;4.372;2023-07-30T09:18:50;15.05;;;2.97;;
24008;SDS011;12217;50.792;4.372;2023-07-30T09:21:18;11.63;;;2.88;;
24008;SDS011;12217;50.792;4.372;2023-07-30T09:23:44;7.32;;;2.78;;
24008;SDS011;12217;50.792;4.372;2023-07-30T09:26:11;10.95;;;3.00;;
24008;SDS011;12217;50.792;4.372;2023-07-30T09:28:37;14.43;;;2.35;;
24008;SDS011;12217;50.792;4.372;2023-07-30T09:31:04;15.23;;;3.53;;
24008;SDS011;12217;50.792;4.372;2023-07-30T09:33:32;11.73;;;2.50;;
24008;SDS011;12217;50.792;4.372;2023-07-30T09:35:58;12.40;;;2.67;;
24008;SDS011;12217;50.792;4.372;2023-07-30T09:38:27;10.82;;;2.65;;
24008;SDS011;12217;50.792;4.372;2023-07-30T09:40:59;13.77;;;3.20;;
24008;SDS011;12217;50.792;4.372;2023-07-30T09:43:32;13.55;;;2.97;;
24008;SDS011;12217;50.792;4.372;2023-07-30T09:46:04;12.43;;;2.72;;
24008;SDS011;12217;50.792;4.372;2023-07-30T09:48:32;11.73;;;2.90;;
24008;SDS011;12217;50.792;4.372;2023-07-30T09:50:59;12.05;;;2.83;;
24008;SDS011;12217;50.792;4.372;2023-07-30T09:53:28;7.55;;;2.47;;
24008;SDS011;12217;50.792;4.372;2023-07-30T09:55:55;7.05;;;2.33;;
24008;SDS011;12217;50.792;4.372;2023-07-30T09:58:21;13.80;;;2.95;;
24008;SDS011;12217;50.792;4.372;2023-07-30T10:00:46;10.55;;;2.47;;
24008;SDS011;12217;50.792;4.372;2023-07-30T10:03:15;12.27;;;2.65;;
24008;SDS011;12217;50.792;4.372;2023-07-30T10:05:43;13.05;;;2.65;;
24008;SDS011;12217;50.792;4.372;2023-07-30T10:08:12;12.32;;;2.65;;
24008;SDS011;12217;50.792;4.372;2023-07-30T10:10:44;7.25;;;2.50;;
24008;SDS011;12217;50.792;4.372;2023-07-30T10:13:10;6.38;;;2.40;;
24008;SDS011;12217;50.792;4.372;2023-07-30T10:15:38;6.45;;;1.73;;
24008;SDS011;12217;50.792;4.372;2023-07-30T10:18:04;13.07;;;2.35;;
24008;SDS011;12217;50.792;4.372;2023-07-30T10:20:30;8.35;;;2.50;;
24008;SDS011;12217;50.792;4.372;2023-07-30T10:23:00;9.50;;;2.28;;
24008;SDS011;12217;50.792;4.372;2023-07-30T10:25:30;9.27;;;1.92;;
24008;SDS011;12217;50.792;4.372;2023-07-30T10:28:07;8.98;;;2.25;;
24008;SDS011;12217;50.792;4.372;2023-07-30T10:30:33;8.27;;;2.38;;
24008;SDS011;12217;50.792;4.372;2023-07-30T10:33:00;9.32;;;2.22;;
24008;SDS011;12217;50.792;4.372;2023-07-30T10:43:34;8.90;;;2.17;;
24008;SDS011;12217;50.792;4.372;2023-07-30T10:46:11;10.48;;;2.25;;
24008;SDS011;12217;50.792;4.372;2023-07-30T10:48:39;11.15;;;2.10;;
24008;SDS011;12217;50.792;4.372;2023-07-30T10:51:08;7.28;;;2.00;;
24008;SDS011;12217;50.792;4.372;2023-07-30T10:53:36;8.88;;;2.17;;
24008;SDS011;12217;50.792;4.372;2023-07-30T10:56:03;11.38;;;2.60;;
24008;SDS011;12217;50.792;4.372;2023-07-30T10:58:29;9.10;;;2.33;;
24008;SDS011;12217;50.792;4.372;2023-07-30T11:00:56;8.98;;;2.42;;
24008;SDS011;12217;50.792;4.372;2023-07-30T11:03:25;8.57;;;2.38;;
24008;SDS011;12217;50.792;4.372;2023-07-30T11:05:51;8.55;;;2.45;;
24008;SDS011;12217;50.792;4.372;2023-07-30T11:08:18;13.63;;;2.67;;
24008;SDS011;12217;50.792;4.372;2023-07-30T11:10:44;9.60;;;2.53;;
24008;SDS011;12217;50.792;4.372;2023-07-30T11:13:12;11.20;;;2.25;;
24008;SDS011;12217;50.792;4.372;2023-07-30T11:15:44;8.40;;;2.10;;
24008;SDS011;12217;50.792;4.372;2023-07-30T11:18:12;7.63;;;2.50;;
24008;SDS011;12217;50.792;4.372;2023-07-30T11:20:38;8.45;;;2.08;;
24008;SDS011;12217;50.792;4.372;2023-07-30T11:23:20;8.43;;;2.10;;
24008;SDS011;12217;50.792;4.372;2023-07-30T11:25:50;8.68;;;2.10;;
24008;SDS011;12217;50.792;4.372;2023-07-30T11:28:32;6.18;;;1.88;;
24008;SDS011;12217;50.792;4.372;2023-07-30T11:30:59;22.05;;;14.63;;
24008;SDS011;12217;50.792;4.372;2023-07-30T11:33:27;7.68;;;2.05;;
24008;SDS011;12217;50.792;4.372;2023-07-30T11:35:53;5.15;;;1.60;;
24008;SDS011;12217;50.792;4.372;2023-07-30T11:38:21;10.50;;;1.63;;
24008;SDS011;12217;50.792;4.372;2023-07-30T11:40:50;5.93;;;2.10;;
24008;SDS011;12217;50.792;4.372;2023-07-30T11:43:17;13.25;;;5.93;;
24008;SDS011;12217;50.792;4.372;2023-07-30T11:45:43;24.55;;;13.43;;
24008;SDS011;12217;50.792;4.372;2023-07-30T11:48:10;5.75;;;2.38;;
24008;SDS011;12217;50.792;4.372;2023-07-30T11:50:49;5.97;;;1.75;;
24008;SDS011;12217;50.792;4.372;2023-07-30T11:53:15;8.50;;;2.08;;
24008;SDS011;12217;50.792;4.372;2023-07-30T11:55:42;5.95;;;1.50;;
24008;SDS011;12217;50.792;4.372;2023-07-30T11:58:09;5.82;;;1.75;;
24008;SDS011;12217;50.792;4.372;2023-07-30T12:00:37;6.18;;;1.52;;
24008;SDS011;12217;50.792;4.372;2023-07-30T12:03:09;5.85;;;1.30;;
24008;SDS011;12217;50.792;4.372;2023-07-30T12:05:39;5.53;;;1.95;;
24008;SDS011;12217;50.792;4.372;2023-07-30T12:08:05;6.32;;;2.08;;
24008;SDS011;12217;50.792;4.372;2023-07-30T12:10:40;5.05;;;1.73;;
24008;SDS011;12217;50.792;4.372;2023-07-30T12:13:14;7.25;;;1.92;;
24008;SDS011;12217;50.792;4.372;2023-07-30T12:18:20;7.07;;;2.03;;
24008;SDS011;12217;50.792;4.372;2023-07-30T12:20:46;4.88;;;1.60;;
24008;SDS011;12217;50.792;4.372;2023-07-30T12:23:13;7.85;;;2.17;;
24008;SDS011;12217;50.792;4.372;2023-07-30T12:25:39;6.43;;;2.05;;
24008;SDS011;12217;50.792;4.372;2023-07-30T12:28:04;8.65;;;2.10;;
24008;SDS011;12217;50.792;4.372;2023-07-30T12:30:30;7.00;;;2.20;;
24008;SDS011;12217;50.792;4.372;2023-07-30T12:32:56;8.65;;;2.05;;
24008;SDS011;12217;50.792;4.372;2023-07-30T12:35:21;7.10;;;1.70;;
24008;SDS011;12217;50.792;4.372;2023-07-30T12:37:48;6.70;;;2.00;;
24008;SDS011;12217;50.792;4.372;2023-07-30T12:40:13;7.18;;;1.50;;
24008;SDS011;12217;50.792;4.372;2023-07-30T12:42:39;13.73;;;8.48;;
24008;SDS011;12217;50.792;4.372;2023-07-30T12:45:05;10.45;;;5.47;;
24008;SDS011;12217;50.792;4.372;2023-07-30T12:47:31;6.75;;;2.38;;
24008;SDS011;12217;50.792;4.372;2023-07-30T12:49:57;6.75;;;2.50;;
24008;SDS011;12217;50.792;4.372;2023-07-30T12:52:22;5.68;;;1.63;;
24008;SDS011;12217;50.792;4.372;2023-07-30T12:54:48;7.57;;;1.85;;
24008;SDS011;12217;50.792;4.372;2023-07-30T12:57:14;3.22;;;1.58;;
24008;SDS011;12217;50.792;4.372;2023-07-30T12:59:40;4.95;;;1.70;;
24008;SDS011;12217;50.792;4.372;2023-07-30T13:02:05;4.28;;;1.33;;
24008;SDS011;12217;50.792;4.372;2023-07-30T13:04:31;4.47;;;1.42;;
24008;SDS011;12217;50.792;4.372;2023-07-30T13:06:56;6.60;;;1.55;;
24008;SDS011;12217;50.792;4.372;2023-07-30T13:09:22;5.68;;;1.70;;
24008;SDS011;12217;50.792;4.372;2023-07-30T13:11:48;4.30;;;1.55;;
24008;SDS011;12217;50.792;4.372;2023-07-30T13:14:13;8.77;;;1.80;;
24008;SDS011;12217;50.792;4.372;2023-07-30T13:16:39;7.30;;;2.20;;
24008;SDS011;12217;50.792;4.372;2023-07-30T13:19:04;5.95;;;1.70;;
24008;SDS011;12217;50.792;4.372;2023-07-30T13:21:30;6.13;;;1.80;;
24008;SDS011;12217;50.792;4.372;2023-07-30T13:23:55;6.80;;;1.63;;
24008;SDS011;12217;50.792;4.372;2023-07-30T13:26:21;6.22;;;1.90;;
24008;SDS011;12217;50.792;4.372;2023-07-30T13:28:46;8.43;;;2.22;;
24008;SDS011;12217;50.792;4.372;2023-07-30T13:31:12;5.05;;;1.88;;
24008;SDS011;12217;50.792;4.372;2023-07-30T13:33:38;7.07;;;2.00;;
24008;SDS011;12217;50.792;4.372;2023-07-30T13:36:04;7.32;;;1.73;;
24008;SDS011;12217;50.792;4.372;2023-07-30T13:38:30;9.60;;;2.20;;
24008;SDS011;12217;50.792;4.372;2023-07-30T13:40:56;4.50;;;2.03;;
24008;SDS011;12217;50.792;4.372;2023-07-30T13:43:22;4.28;;;1.98;;
24008;SDS011;12217;50.792;4.372;2023-07-30T13:45:48;4.88;;;1.80;;
24008;SDS011;12217;50.792;4.372;2023-07-30T13:48:15;6.63;;;1.85;;
24008;SDS011;12217;50.792;4.372;2023-07-30T13:50:41;6.78;;;2.00;;
24008;SDS011;12217;50.792;4.372;2023-07-30T13:53:07;5.35;;;2.20;;
24008;SDS011;12217;50.792;4.372;2023-07-30T13:55:32;5.72;;;2.05;;
24008;SDS011;12217;50.792;4.372;2023-07-30T13:57:58;5.15;;;2.03;;
24008;SDS011;12217;50.792;4.372;2023-07-30T14:00:24;4.97;;;2.10;;
24008;SDS011;12217;50.792;4.372;2023-07-30T14:02:50;4.82;;;1.88;;
24008;SDS011;12217;50.792;4.372;2023-07-30T14:05:16;7.70;;;2.00;;
24008;SDS011;12217;50.792;4.372;2023-07-30T14:07:42;3.67;;;1.75;;
24008;SDS011;12217;50.792;4.372;2023-07-30T14:10:08;5.82;;;1.77;;
24008;SDS011;12217;50.792;4.372;2023-07-30T14:12:34;6.85;;;1.80;;
24008;SDS011;12217;50.792;4.372;2023-07-30T14:15:00;4.38;;;1.88;;
24008;SDS011;12217;50.792;4.372;2023-07-30T14:17:26;3.95;;;1.67;;
24008;SDS011;12217;50.792;4.372;2023-07-30T14:19:51;5.22;;;2.00;;
24008;SDS011;12217;50.792;4.372;2023-07-30T14:22:17;5.00;;;1.77;;
24008;SDS011;12217;50.792;4.372;2023-07-30T14:24:42;10.30;;;2.35;;
24008;SDS011;12217;50.792;4.372;2023-07-30T14:27:09;7.78;;;2.30;;
24008;SDS011;12217;50.792;4.372;2023-07-30T14:29:35;8.05;;;2.38;;
24008;SDS011;12217;50.792;4.372;2023-07-30T14:32:01;7.70;;;2.00;;
24008;SDS011;12217;50.792;4.372;2023-07-30T14:34:26;8.93;;;2.35;;
24008;SDS011;12217;50.792;4.372;2023-07-30T14:36:52;6.15;;;2.20;;
24008;SDS011;12217;50.792;4.372;2023-07-30T14:39:17;7.57;;;1.98;;
24008;SDS011;12217;50.792;4.372;2023-07-30T14:41:43;11.13;;;2.83;;
24008;SDS011;12217;50.792;4.372;2023-07-30T14:44:08;8.80;;;3.20;;